createdAt,value
2023-03-05T00:01:35.438Z,1.30
2023-03-05T00:04:04.656Z,1.37
2023-03-05T00:06:32.968Z,1.80
2023-03-05T00:09:02.868Z,2.43
2023-03-05T00:11:35.126Z,1.80
2023-03-05T00:14:04.446Z,1.47
2023-03-05T00:16:33.861Z,2.07
2023-03-05T00:19:04.173Z,2.00
2023-03-05T00:21:36.184Z,1.47
2023-03-05T00:24:18.097Z,1.87
2023-03-05T00:26:46.347Z,2.03
2023-03-05T00:29:19.369Z,1.70
2023-03-05T00:31:46.744Z,1.50
2023-03-05T00:34:16.919Z,2.10
2023-03-05T00:36:48.720Z,1.93
2023-03-05T00:39:19.766Z,2.03
2023-03-05T00:41:47.138Z,1.53
2023-03-05T00:44:14.172Z,1.47
2023-03-05T00:46:43.598Z,1.50
2023-03-05T00:49:10.721Z,1.47
2023-03-05T00:51:40.684Z,1.80
2023-03-05T00:54:08.020Z,1.87
2023-03-05T00:56:35.077Z,1.27
2023-03-05T00:59:02.152Z,1.30
2023-03-05T01:01:29.285Z,1.80
2023-03-05T01:04:01.444Z,1.50
2023-03-05T01:06:29.537Z,1.13
2023-03-05T01:08:56.865Z,1.50
2023-03-05T01:11:24.860Z,1.20
2023-03-05T01:13:51.944Z,1.00
2023-03-05T01:16:18.925Z,1.63
2023-03-05T01:18:48.864Z,1.50
2023-03-05T01:21:15.706Z,1.20
2023-03-05T01:23:44.981Z,1.23
2023-03-05T01:26:11.812Z,1.10
2023-03-05T01:28:38.867Z,1.33
2023-03-05T01:31:15.024Z,0.90
2023-03-05T01:33:44.665Z,1.07
2023-03-05T01:36:16.601Z,2.70
2023-03-05T01:38:47.738Z,1.63
2023-03-05T01:41:16.374Z,1.87
2023-03-05T01:43:49.860Z,1.50
2023-03-05T01:46:24.229Z,1.77
2023-03-05T01:49:21.479Z,1.40
2023-03-05T01:52:05.439Z,1.07
2023-03-05T01:54:52.247Z,1.43
2023-03-05T01:57:28.518Z,1.50
2023-03-05T02:00:05.159Z,1.27
2023-03-05T02:02:33.061Z,1.10
2023-03-05T02:05:09.434Z,1.80
2023-03-05T02:07:43.140Z,1.27
2023-03-05T02:10:45.589Z,1.17
2023-03-05T02:13:22.817Z,0.97
2023-03-05T02:15:53.807Z,0.97
2023-03-05T02:18:24.284Z,1.20
2023-03-05T02:21:15.812Z,1.00
2023-03-05T02:23:42.707Z,0.80
2023-03-05T02:26:10.823Z,0.90
2023-03-05T02:28:47.279Z,0.83
2023-03-05T02:31:20.211Z,1.43
2023-03-05T02:33:48.200Z,1.13
2023-03-05T02:36:18.078Z,1.03
2023-03-05T02:38:45.698Z,1.03
2023-03-05T02:41:13.943Z,2.10
2023-03-05T02:43:41.274Z,2.53
2023-03-05T02:46:08.615Z,1.43
2023-03-05T02:48:35.525Z,1.40
2023-03-05T02:51:05.546Z,1.30
2023-03-05T02:53:32.537Z,1.00
2023-03-05T02:56:02.044Z,1.60
2023-03-05T02:58:29.021Z,1.20
2023-03-05T03:00:56.169Z,1.13
2023-03-05T03:03:23.233Z,1.20
2023-03-05T03:05:50.380Z,1.40
2023-03-05T03:08:21.791Z,1.10
2023-03-05T03:10:48.651Z,1.00
2023-03-05T03:13:15.616Z,1.43
2023-03-05T03:15:42.548Z,1.80
2023-03-05T03:18:12.442Z,1.30
2023-03-05T03:20:39.538Z,2.00
2023-03-05T03:23:07.473Z,1.17
2023-03-05T03:25:36.954Z,1.43
2023-03-05T03:28:03.849Z,0.87
2023-03-05T03:30:30.839Z,1.23
2023-03-05T03:32:57.888Z,1.40
2023-03-05T03:35:24.856Z,1.20
2023-03-05T03:37:55.256Z,1.33
2023-03-05T03:40:22.405Z,1.57
2023-03-05T03:42:54.271Z,1.63
2023-03-05T03:45:22.261Z,1.70
2023-03-05T03:47:50.706Z,1.90
2023-03-05T03:50:19.131Z,1.73
2023-03-05T03:52:46.054Z,1.97
2023-03-05T03:55:15.949Z,2.37
2023-03-05T03:57:43.565Z,1.90
2023-03-05T04:00:11.649Z,2.00
2023-03-05T04:02:38.537Z,2.53
2023-03-05T04:05:06.345Z,2.30
2023-03-05T04:07:33.273Z,2.10
2023-03-05T04:10:02.227Z,1.73
2023-03-05T04:12:29.286Z,1.97
2023-03-05T04:14:58.674Z,2.17
2023-03-05T04:17:25.618Z,2.60
2023-03-05T04:19:52.526Z,2.00
2023-03-05T04:22:19.424Z,2.00
2023-03-05T04:24:48.867Z,2.67
2023-03-05T04:27:15.808Z,2.60
2023-03-05T04:29:42.931Z,2.47
2023-03-05T04:32:09.794Z,2.47
2023-03-05T04:34:38.067Z,2.67
2023-03-05T04:37:05.190Z,2.10
2023-03-05T04:39:32.164Z,2.17
2023-03-05T04:42:06.120Z,2.17
2023-03-05T04:44:35.585Z,1.87
2023-03-05T04:47:02.604Z,1.50
2023-03-05T04:49:30.075Z,2.50
2023-03-05T04:51:57.620Z,1.73
2023-03-05T04:54:28.145Z,1.63
2023-03-05T04:56:55.154Z,1.90
2023-03-05T04:59:22.031Z,2.63
2023-03-05T05:01:51.510Z,1.93
2023-03-05T05:04:23.476Z,1.87
2023-03-05T05:06:50.492Z,1.90
2023-03-05T05:09:19.942Z,1.87
2023-03-05T05:11:52.226Z,1.83
2023-03-05T05:14:24.042Z,2.10
2023-03-05T05:16:54.049Z,2.37
2023-03-05T05:19:23.512Z,2.00
2023-03-05T05:21:50.461Z,1.70
2023-03-05T05:24:19.898Z,1.77
2023-03-05T05:26:46.793Z,1.77
2023-03-05T05:29:13.847Z,1.93
2023-03-05T05:31:40.758Z,1.67
2023-03-05T05:34:07.690Z,2.03
2023-03-05T05:36:37.081Z,1.77
2023-03-05T05:39:07.623Z,1.50
2023-03-05T05:41:34.520Z,2.10
2023-03-05T05:44:01.478Z,1.40
2023-03-05T05:46:31.374Z,1.70
2023-03-05T05:48:58.428Z,1.70
2023-03-05T05:51:25.476Z,1.80
2023-03-05T05:53:53.350Z,2.03
2023-03-05T05:56:22.979Z,1.83
2023-03-05T05:58:50.128Z,1.90
2023-03-05T06:01:37.371Z,2.23
2023-03-05T06:04:04.429Z,1.97
2023-03-05T06:06:31.647Z,1.63
2023-03-05T06:08:58.722Z,1.80
2023-03-05T06:11:25.642Z,2.43
2023-03-05T06:13:55.705Z,1.70
2023-03-05T06:16:28.483Z,1.60
2023-03-05T06:18:57.903Z,1.57
2023-03-05T06:21:25.339Z,2.03
2023-03-05T06:23:53.730Z,1.87
2023-03-05T06:26:22.944Z,1.27
2023-03-05T06:28:53.233Z,1.50
2023-03-05T06:31:23.512Z,1.70
2023-03-05T06:33:50.627Z,1.20
2023-03-05T06:36:22.102Z,1.30
2023-03-05T06:38:49.459Z,1.10
2023-03-05T06:41:21.745Z,1.53
2023-03-05T06:43:49.159Z,2.10
2023-03-05T06:46:31.178Z,1.23
2023-03-05T06:49:03.984Z,1.40
2023-03-05T06:51:42.336Z,1.40
2023-03-05T06:54:16.869Z,1.40
2023-03-05T06:56:46.910Z,1.30
2023-03-05T06:59:17.598Z,1.27
2023-03-05T07:01:45.570Z,1.37
2023-03-05T07:04:17.776Z,1.10
2023-03-05T07:06:45.138Z,1.43
2023-03-05T07:09:15.629Z,1.10
2023-03-05T07:11:43.114Z,1.20
2023-03-05T07:14:10.254Z,1.10
2023-03-05T07:16:42.196Z,1.30
2023-03-05T07:19:11.587Z,1.10
2023-03-05T07:21:40.000Z,1.10
2023-03-05T07:24:08.370Z,1.30
2023-03-05T07:26:36.267Z,1.27
2023-03-05T07:29:04.333Z,1.30
2023-03-05T07:31:33.835Z,1.30
2023-03-05T07:34:06.602Z,1.43
2023-03-05T07:36:34.957Z,1.20
2023-03-05T07:39:02.949Z,1.87
2023-03-05T07:41:35.287Z,1.37
2023-03-05T07:44:02.257Z,1.60
2023-03-05T07:46:33.411Z,1.50
2023-03-05T07:49:00.790Z,1.87
2023-03-05T07:51:28.061Z,1.70
2023-03-05T07:53:57.494Z,2.10
2023-03-05T07:56:38.055Z,1.30
2023-03-05T07:59:14.818Z,1.57
2023-03-05T08:01:41.770Z,1.43
2023-03-05T08:04:11.464Z,2.07
2023-03-05T08:06:42.655Z,2.40
2023-03-05T08:09:09.678Z,1.63
2023-03-05T08:11:36.690Z,1.80
2023-03-05T08:14:04.533Z,1.80
2023-03-05T08:16:32.225Z,1.60
2023-03-05T08:18:59.558Z,1.67
2023-03-05T08:21:36.166Z,2.10
2023-03-05T08:24:09.045Z,1.83
2023-03-05T08:26:40.348Z,1.70
2023-03-05T08:29:12.477Z,1.07
2023-03-05T08:31:40.661Z,1.10
2023-03-05T08:34:07.616Z,1.60
2023-03-05T08:36:36.664Z,1.57
2023-03-05T08:39:06.739Z,1.40
2023-03-05T08:41:33.671Z,2.50
2023-03-05T08:44:02.844Z,1.47
2023-03-05T08:46:33.052Z,1.80
2023-03-05T08:49:00.125Z,1.50
2023-03-05T08:51:27.411Z,1.87
2023-03-05T08:53:56.374Z,1.37
2023-03-05T08:56:27.478Z,1.40
2023-03-05T08:58:54.884Z,1.50
2023-03-05T09:01:25.240Z,1.20
2023-03-05T09:03:54.624Z,1.43
2023-03-05T09:06:26.314Z,1.87
2023-03-05T09:08:54.047Z,1.67
2023-03-05T09:11:22.230Z,1.33
2023-03-05T09:13:49.398Z,1.60
2023-03-05T09:16:20.768Z,1.50
2023-03-05T09:18:48.158Z,1.00
2023-03-05T09:21:17.543Z,1.50
2023-03-05T09:23:47.082Z,1.43
2023-03-05T09:26:16.343Z,1.67
2023-03-05T09:28:43.265Z,2.30
2023-03-05T09:31:11.221Z,2.50
2023-03-05T09:33:38.825Z,1.90
2023-03-05T09:36:27.282Z,2.40
2023-03-05T09:38:55.094Z,2.17
2023-03-05T09:42:23.449Z,2.30
2023-03-05T09:45:07.417Z,1.90
2023-03-05T09:47:58.297Z,2.20
2023-03-05T09:50:38.765Z,2.60
2023-03-05T09:53:22.305Z,2.40
2023-03-05T09:55:54.154Z,2.60
2023-03-05T09:58:42.903Z,1.93
2023-03-05T10:01:39.576Z,2.10
2023-03-05T10:04:22.889Z,2.50
2023-03-05T10:07:00.392Z,1.60
2023-03-05T10:09:54.092Z,1.77
2023-03-05T10:12:43.464Z,1.63
2023-03-05T10:15:25.243Z,1.50
2023-03-05T10:18:32.217Z,1.53
2023-03-05T10:21:05.592Z,1.20
2023-03-05T10:24:07.317Z,0.90
2023-03-05T10:26:55.023Z,1.20
2023-03-05T10:29:46.038Z,1.13
2023-03-05T10:32:48.369Z,1.70
2023-03-05T10:36:11.677Z,0.97
2023-03-05T10:38:50.843Z,1.00
2023-03-05T10:42:02.693Z,1.10
2023-03-05T10:44:44.142Z,1.43
2023-03-05T10:47:46.087Z,1.17
2023-03-05T10:50:26.020Z,0.80
2023-03-05T10:53:37.626Z,1.10
2023-03-05T10:56:06.622Z,1.03
2023-03-05T10:58:36.187Z,1.10
2023-03-05T11:01:25.492Z,0.77
2023-03-05T11:04:08.543Z,1.00
2023-03-05T11:06:41.305Z,0.90
2023-03-05T11:09:29.260Z,1.50
2023-03-05T11:12:08.701Z,1.53
2023-03-05T11:14:38.843Z,1.60
2023-03-05T11:17:43.276Z,1.30
2023-03-05T11:20:33.956Z,0.87
2023-03-05T11:23:15.693Z,1.10
2023-03-05T11:26:05.463Z,1.00
2023-03-05T11:28:39.775Z,1.50
2023-03-05T11:31:18.271Z,1.37
2023-03-05T11:34:23.428Z,1.90
2023-03-05T11:36:56.932Z,1.90
2023-03-05T11:39:26.126Z,1.57
2023-03-05T11:41:59.027Z,2.00
2023-03-05T11:45:02.011Z,10.47
2023-03-05T11:47:49.705Z,1.47
2023-03-05T11:50:19.123Z,1.30
2023-03-05T11:52:58.248Z,1.40
2023-03-05T11:55:45.299Z,1.00
2023-03-05T11:58:40.474Z,1.43
2023-03-05T12:01:17.823Z,1.50
2023-03-05T12:03:45.617Z,1.27
2023-03-05T12:06:44.637Z,1.40
2023-03-05T12:09:43.448Z,1.20
2023-03-05T12:12:37.443Z,1.30
2023-03-05T12:15:51.409Z,1.90
2023-03-05T12:18:46.377Z,1.70
2023-03-05T12:21:27.944Z,1.70
2023-03-05T12:24:03.837Z,1.90
2023-03-05T12:27:07.299Z,2.10
2023-03-05T12:29:55.007Z,1.90
2023-03-05T12:32:34.117Z,2.20
2023-03-05T12:35:37.633Z,3.50
2023-03-05T12:38:33.245Z,2.30
2023-03-05T12:41:27.840Z,2.90
2023-03-05T12:44:07.109Z,3.20
2023-03-05T12:46:44.322Z,2.60
2023-03-05T12:49:25.874Z,3.53
2023-03-05T12:51:59.235Z,1.97
2023-03-05T12:54:41.900Z,2.10
2023-03-05T12:57:26.416Z,2.73
2023-03-05T13:00:22.982Z,2.23
2023-03-05T13:02:58.593Z,1.70
2023-03-05T13:05:31.361Z,1.27
2023-03-05T13:08:28.096Z,1.30
2023-03-05T13:11:01.700Z,1.43
2023-03-05T13:13:36.311Z,1.10
2023-03-05T13:16:04.630Z,1.20
2023-03-05T13:18:33.132Z,0.87
2023-03-05T13:21:11.843Z,0.70
2023-03-05T13:23:47.616Z,0.60
2023-03-05T13:26:20.488Z,0.60
2023-03-05T13:29:14.620Z,0.90
2023-03-05T13:31:52.551Z,1.10
2023-03-05T13:34:40.877Z,0.80
2023-03-05T13:37:27.582Z,0.80
2023-03-05T13:39:59.419Z,1.57
2023-03-05T13:42:34.672Z,0.97
2023-03-05T13:45:20.595Z,0.70
2023-03-05T13:47:59.928Z,1.30
2023-03-05T13:50:39.915Z,1.67
2023-03-05T13:53:30.030Z,1.47
2023-03-05T13:56:07.451Z,0.70
2023-03-05T13:58:54.894Z,0.90
2023-03-05T14:02:07.919Z,0.70
2023-03-05T14:05:05.447Z,0.87
2023-03-05T14:11:26.335Z,0.80
2023-03-05T14:18:02.760Z,0.90
2023-03-05T14:20:32.022Z,0.90
2023-03-05T14:23:01.411Z,1.07
2023-03-05T14:25:39.585Z,0.73
2023-03-05T14:28:25.307Z,1.10
2023-03-05T14:30:55.807Z,1.07
2023-03-05T14:33:31.911Z,0.70
2023-03-05T14:36:03.438Z,0.87
2023-03-05T14:38:38.292Z,0.90
2023-03-05T14:41:42.074Z,0.90
2023-03-05T14:44:25.444Z,0.67
2023-03-05T14:46:52.450Z,0.70
2023-03-05T14:49:19.397Z,0.70
2023-03-05T14:51:49.380Z,0.80
2023-03-05T14:54:26.435Z,0.70
2023-03-05T14:56:56.298Z,1.13
2023-03-05T14:59:28.793Z,0.67
2023-03-05T15:02:01.363Z,0.87
2023-03-05T15:04:31.335Z,1.03
2023-03-05T15:07:01.420Z,0.60
2023-03-05T15:09:28.370Z,0.80
2023-03-05T15:11:55.266Z,0.80
2023-03-05T15:14:22.339Z,0.60
2023-03-05T15:16:49.311Z,0.80
2023-03-05T15:19:16.485Z,1.00
2023-03-05T15:21:45.548Z,1.17
2023-03-05T15:24:15.126Z,1.00
2023-03-05T15:26:43.686Z,0.70
2023-03-05T15:29:10.846Z,1.00
2023-03-05T15:31:40.468Z,1.10
2023-03-05T15:34:07.864Z,0.90
2023-03-05T15:36:36.929Z,1.23
2023-03-05T15:39:09.292Z,0.90
2023-03-05T15:41:36.391Z,1.10
2023-03-05T15:44:03.612Z,1.17
2023-03-05T15:46:31.071Z,0.97
2023-03-05T15:48:58.176Z,1.50
2023-03-05T15:51:25.146Z,0.80
2023-03-05T15:53:52.465Z,1.10
2023-03-05T15:56:20.022Z,1.30
2023-03-05T15:58:50.722Z,0.90
2023-03-05T16:01:19.423Z,0.90
2023-03-05T16:03:47.151Z,0.70
2023-03-05T16:06:16.026Z,1.37
2023-03-05T16:08:49.156Z,1.00
2023-03-05T16:11:16.489Z,0.60
2023-03-05T16:13:43.686Z,0.87
2023-03-05T16:16:11.331Z,0.83
2023-03-05T16:18:42.090Z,1.00
2023-03-05T16:21:10.072Z,0.80
2023-03-05T16:23:37.290Z,1.17
2023-03-05T16:26:04.363Z,1.73
2023-03-05T16:28:31.429Z,0.90
2023-03-05T16:30:58.702Z,0.97
2023-03-05T16:33:30.277Z,0.90
2023-03-05T16:36:30.525Z,0.63
2023-03-05T16:38:59.776Z,0.77
2023-03-05T16:41:29.311Z,0.80
2023-03-05T16:43:56.774Z,0.80
2023-03-05T16:46:29.264Z,0.97
2023-03-05T16:48:56.876Z,0.70
2023-03-05T16:51:24.318Z,0.90
2023-03-05T16:53:51.785Z,0.90
2023-03-05T16:56:19.389Z,1.10
2023-03-05T16:58:46.828Z,1.97
2023-03-05T17:01:19.898Z,1.00
2023-03-05T17:03:48.002Z,1.10
2023-03-05T17:06:25.578Z,0.87
2023-03-05T17:08:53.881Z,1.30
2023-03-05T17:11:27.524Z,0.80
2023-03-05T17:13:56.941Z,0.90
2023-03-05T17:16:24.142Z,1.20
2023-03-05T17:18:51.237Z,0.97
2023-03-05T17:21:18.648Z,1.30
2023-03-05T17:23:45.948Z,1.20
2023-03-05T17:26:17.776Z,0.93
2023-03-05T17:28:45.953Z,1.00
2023-03-05T17:31:18.828Z,0.80
2023-03-05T17:33:50.953Z,1.30
2023-03-05T17:36:20.549Z,0.97
2023-03-05T17:38:51.587Z,1.10
2023-03-05T17:41:19.898Z,1.30
2023-03-05T17:43:51.839Z,1.43
2023-03-05T17:46:19.002Z,1.20
2023-03-05T17:48:46.173Z,7.53
2023-03-05T17:51:16.792Z,1.63
2023-03-05T17:53:44.961Z,1.40
2023-03-05T17:56:14.502Z,1.40
2023-03-05T17:58:41.964Z,1.70
2023-03-05T18:01:08.989Z,22.33
2023-03-05T18:03:37.093Z,2.90
2023-03-05T18:06:05.094Z,1.60
2023-03-05T18:08:34.510Z,1.50
2023-03-05T18:11:01.620Z,1.83
2023-03-05T18:13:28.898Z,2.37
2023-03-05T18:16:03.826Z,1.90
2023-03-05T18:18:31.573Z,1.50
2023-03-05T18:20:58.433Z,1.83
2023-03-05T18:23:25.549Z,1.57
2023-03-05T18:25:52.834Z,1.30
2023-03-05T18:28:19.859Z,1.60
2023-03-05T18:30:48.904Z,1.23
2023-03-05T18:33:25.056Z,1.47
2023-03-05T18:35:53.350Z,3.00
2023-03-05T18:38:23.446Z,1.93
2023-03-05T18:40:51.777Z,1.67
2023-03-05T18:43:21.009Z,1.70
2023-03-05T18:45:53.086Z,2.30
2023-03-05T18:48:23.659Z,2.43
2023-03-05T18:50:53.279Z,2.77
2023-03-05T18:53:21.850Z,2.50
2023-03-05T18:55:55.133Z,2.90
2023-03-05T18:58:23.043Z,3.27
2023-03-05T19:00:55.455Z,2.93
2023-03-05T19:03:23.147Z,3.20
2023-03-05T19:05:54.956Z,3.60
2023-03-05T19:08:24.616Z,3.40
2023-03-05T19:10:51.740Z,2.90
2023-03-05T19:13:39.499Z,2.80
2023-03-05T19:16:17.793Z,3.60
2023-03-05T19:18:59.897Z,3.40
2023-03-05T19:21:27.010Z,4.63
2023-03-05T19:23:54.315Z,6.70
2023-03-05T19:26:21.278Z,6.23
2023-03-05T19:28:48.556Z,5.73
2023-03-05T19:31:15.994Z,5.33
2023-03-05T19:33:45.528Z,5.37
2023-03-05T19:36:15.295Z,5.47
2023-03-05T19:38:43.186Z,4.50
2023-03-05T19:41:13.258Z,4.50
2023-03-05T19:43:41.233Z,3.97
2023-03-05T19:46:29.965Z,4.37
2023-03-05T19:48:57.625Z,4.00
2023-03-05T19:51:29.744Z,4.20
2023-03-05T19:53:56.788Z,5.07
2023-03-05T19:56:24.051Z,4.30
2023-03-05T19:58:51.594Z,5.03
2023-03-05T20:01:31.110Z,4.77
2023-03-05T20:04:00.577Z,6.20
2023-03-05T20:06:30.209Z,7.40
2023-03-05T20:09:00.243Z,7.57
2023-03-05T20:11:30.152Z,6.80
2023-03-05T20:14:00.692Z,7.20
2023-03-05T20:16:37.575Z,7.50
2023-03-05T20:19:08.343Z,8.17
2023-03-05T20:21:40.906Z,9.87
2023-03-05T20:24:13.571Z,10.13
2023-03-05T20:26:42.149Z,8.23
2023-03-05T20:29:18.958Z,8.03
2023-03-05T20:31:46.752Z,7.30
2023-03-05T20:34:19.903Z,8.93
2023-03-05T20:37:06.096Z,9.67
2023-03-05T20:39:33.452Z,9.07
2023-03-05T20:42:06.945Z,8.13
2023-03-05T20:44:34.118Z,9.80
2023-03-05T20:47:22.452Z,7.73
2023-03-05T20:49:54.430Z,7.20
2023-03-05T20:52:21.850Z,7.53
2023-03-05T20:54:48.873Z,8.80
2023-03-05T20:57:15.979Z,8.93
2023-03-05T20:59:43.347Z,8.97
2023-03-05T21:02:13.151Z,9.60
2023-03-05T21:04:40.117Z,8.40
2023-03-05T21:07:07.311Z,7.73
2023-03-05T21:09:34.475Z,7.80
2023-03-05T21:12:01.974Z,8.17
2023-03-05T21:14:28.844Z,8.10
2023-03-05T21:16:56.014Z,8.67
2023-03-05T21:19:23.228Z,7.73
2023-03-05T21:21:50.542Z,8.47
2023-03-05T21:24:18.142Z,8.53
2023-03-05T21:26:45.401Z,8.80
2023-03-05T21:29:12.413Z,7.77
2023-03-05T21:31:39.829Z,8.63
2023-03-05T21:34:09.307Z,8.23
2023-03-05T21:36:36.223Z,7.80
2023-03-05T21:39:03.367Z,8.40
2023-03-05T21:41:31.266Z,8.40
2023-03-05T21:44:04.173Z,8.30
2023-03-05T21:46:35.108Z,6.30
2023-03-05T21:49:04.393Z,6.10
2023-03-05T21:51:38.720Z,6.13
2023-03-05T21:54:06.048Z,5.37
2023-03-05T21:56:33.001Z,5.20
2023-03-05T21:59:00.782Z,5.30
2023-03-05T22:01:32.732Z,5.43
2023-03-05T22:04:00.081Z,5.70
2023-03-05T22:06:27.340Z,4.63
2023-03-05T22:08:54.306Z,5.27
2023-03-05T22:11:22.318Z,4.90
2023-03-05T22:13:51.324Z,4.80
2023-03-05T22:16:27.445Z,4.90
2023-03-05T22:18:55.105Z,4.57
2023-03-05T22:21:26.948Z,4.30
2023-03-05T22:23:57.156Z,4.30
2023-03-05T22:26:34.406Z,3.90
2023-03-05T22:29:02.277Z,4.20
2023-03-05T22:31:31.593Z,3.67
2023-03-05T22:33:58.668Z,3.63
2023-03-05T22:36:25.810Z,2.70
2023-03-05T22:38:53.025Z,3.07
2023-03-05T22:41:21.198Z,3.53
2023-03-05T22:43:49.911Z,2.93
2023-03-05T22:46:27.599Z,3.47
2023-03-05T22:48:54.883Z,3.03
2023-03-05T22:51:22.207Z,3.00
2023-03-05T22:53:49.346Z,3.10
2023-03-05T22:56:19.486Z,3.57
2023-03-05T22:58:51.270Z,3.00
2023-03-05T23:01:22.507Z,2.70
2023-03-05T23:03:54.855Z,2.33
2023-03-05T23:06:21.970Z,2.63
2023-03-05T23:08:48.925Z,3.10
2023-03-05T23:11:17.950Z,2.80
2023-03-05T23:13:44.894Z,2.80
2023-03-05T23:16:11.872Z,3.00
2023-03-05T23:18:38.786Z,3.10
2023-03-05T23:21:05.994Z,3.30
2023-03-05T23:23:33.586Z,3.33
2023-03-05T23:26:00.604Z,3.43
2023-03-05T23:28:27.557Z,3.50
2023-03-05T23:30:54.555Z,3.30
2023-03-05T23:33:25.517Z,3.17
2023-03-05T23:35:59.162Z,3.33
2023-03-05T23:38:30.015Z,3.20
2023-03-05T23:41:01.453Z,4.10
2023-03-05T23:43:28.649Z,3.43
2023-03-05T23:45:56.629Z,3.60
2023-03-05T23:48:28.073Z,3.20
2023-03-05T23:50:55.484Z,2.97
2023-03-05T23:53:31.307Z,4.10
2023-03-05T23:55:58.351Z,3.00
2023-03-05T23:58:25.832Z,4.10
